Time;durP1;ratioP1;P1;durP2;ratioP2;P2;SDS_P1;SDS_P2;PMS_P1;PMS_P2;Temp;Humidity;BMP_temperature;BMP_pressure;BME280_temperature;BME280_humidity;BME280_pressure;Samples;Min_cycle;Max_cycle;Signal;HPM_P1;HPM_P2
2021/07/31 00:03:01;;;;;;;5.55;5.15;;;;;;;19.66;64.66;100344.69;5971115;29;20232;-52
2021/07/31 00:06:22;;;;;;;3.90;3.33;;;;;;;19.58;61.72;100331.03;5974087;29;20239;-49
2021/07/31 00:09:44;;;;;;;4.07;3.67;;;;;;;19.78;61.67;100329.97;5971261;29;20239;-52
2021/07/31 00:13:05;;;;;;;3.55;2.88;;;;;;;20.03;60.08;100325.97;5970451;29;20240;-54
2021/07/31 00:16:26;;;;;;;4.00;3.60;;;;;;;19.84;60.12;100328.78;5966586;29;20641;-50
2021/07/31 00:19:47;;;;;;;3.40;2.70;;;;;;;20.37;57.62;100316.09;5973563;29;20240;-53
2021/07/31 00:23:08;;;;;;;3.90;3.40;;;;;;;20.34;57.39;100305.72;5967809;29;20267;-51
2021/07/31 00:26:30;;;;;;;3.75;3.40;;;;;;;19.67;58.95;100316.47;5970017;29;20232;-49
2021/07/31 00:29:51;;;;;;;3.53;2.78;;;;;;;19.39;60.29;100331.19;5970731;29;20623;-46
2021/07/31 00:33:12;;;;;;;3.25;2.92;;;;;;;19.85;58.97;100318.13;5966171;29;20232;-47
2021/07/31 00:36:33;;;;;;;3.65;3.33;;;;;;;19.52;60.55;100330.50;5964093;29;20799;-49
2021/07/31 00:39:54;;;;;;;3.58;3.28;;;;;;;19.42;62.31;100325.72;5967175;29;20335;-48
2021/07/31 00:43:16;;;;;;;5.75;4.13;;;;;;;19.35;62.09;100328.75;5973955;29;20607;-48
2021/07/31 00:46:39;;;;;;;3.67;3.05;;;;;;;19.23;62.40;100322.34;5983556;29;20256;-52
2021/07/31 00:50:00;;;;;;;3.35;2.78;;;;;;;19.14;63.42;100325.50;5966380;29;20244;-50
2021/07/31 00:53:22;;;;;;;3.38;3.08;;;;;;;18.92;63.22;100331.91;5983425;29;20232;-49
2021/07/31 00:56:44;;;;;;;3.63;3.15;;;;;;;18.68;63.58;100312.84;5968821;29;20247;-49
2021/07/31 01:00:08;;;;;;;2.95;2.63;;;;;;;18.54;63.83;100310.91;5966822;29;20236;-49
2021/07/31 01:03:29;;;;;;;3.15;2.92;;;;;;;19.21;61.91;100314.53;5972883;29;20271;-52
2021/07/31 01:06:51;;;;;;;2.97;2.33;;;;;;;19.12;61.80;100316.81;5975860;29;20240;-51
2021/07/31 01:10:13;;;;;;;2.95;2.75;;;;;;;18.86;62.48;100313.72;5974853;29;20236;-50
2021/07/31 01:13:35;;;;;;;2.38;2.28;;;;;;;19.52;60.26;100315.50;5991048;29;20268;-50
2021/07/31 01:16:58;;;;;;;2.72;2.53;;;;;;;18.85;62.33;100317.31;5972549;29;20240;-51
2021/07/31 01:20:21;;;;;;;4.15;3.10;;;;;;;18.99;62.03;100317.44;5974962;29;20262;-51
2021/07/31 01:23:50;;;;;;;3.40;3.10;;;;;;;18.89;63.35;100319.69;5976266;29;20331;-51
2021/07/31 01:27:11;;;;;;;4.88;4.55;;;;;;;18.34;66.09;100309.28;5971816;29;20232;-48
2021/07/31 01:30:31;;;;;;;5.43;4.93;;;;;;;18.77;65.25;100309.75;5977122;29;20335;-48
2021/07/31 01:33:53;;;;;;;5.45;4.95;;;;;;;18.72;65.63;100301.22;5971635;29;20314;-47
2021/07/31 01:37:15;;;;;;;6.13;4.80;;;;;;;18.86;65.17;100300.53;5966275;29;20235;-49
2021/07/31 01:40:40;;;;;;;5.13;4.72;;;;;;;19.11;64.67;100304.53;5969522;29;20244;-52
2021/07/31 01:44:01;;;;;;;6.20;4.75;;;;;;;19.31;64.04;100316.66;5968621;29;20913;-49
2021/07/31 01:47:22;;;;;;;6.05;4.90;;;;;;;19.10;65.47;100310.75;5978181;29;20322;-54
2021/07/31 01:50:44;;;;;;;6.72;6.13;;;;;;;19.03;66.13;100318.97;5973623;29;20412;-49
2021/07/31 01:54:07;;;;;;;7.13;6.35;;;;;;;18.73;68.04;100326.66;5983697;29;20626;-52
2021/07/31 01:57:29;;;;;;;6.72;6.05;;;;;;;18.36;69.06;100317.09;5973739;29;20243;-49
2021/07/31 02:01:09;;;;;;;5.95;5.35;;;;;;;18.47;68.06;100317.41;5973905;29;20235;-50
2021/07/31 02:04:33;;;;;;;4.72;4.38;;;;;;;18.13;66.88;100311.19;5971206;29;20271;-52
2021/07/31 02:08:17;;;;;;;4.10;3.80;;;;;;;18.30;66.52;100313.84;5969786;29;20240;-50
2021/07/31 02:11:46;;;;;;;3.30;3.03;;;;;;;18.13;66.88;100305.91;5974107;29;20252;-52
2021/07/31 02:15:09;;;;;;;3.88;3.47;;;;;;;18.81;63.48;100307.84;5977420;29;20611;-52
2021/07/31 02:18:30;;;;;;;3.88;2.95;;;;;;;18.09;63.69;100302.56;5967174;29;20244;-49
2021/07/31 02:21:52;;;;;;;2.42;2.22;;;;;;;18.44;62.58;100288.59;5969586;29;20245;-53
2021/07/31 02:25:31;;;;;;;5.00;2.90;;;;;;;18.06;63.04;100293.94;5973024;29;20611;-54
2021/07/31 02:29:15;;;;;;;5.68;2.53;;;;;;;17.97;62.54;100295.25;5957957;29;20264;-51
2021/07/31 02:32:38;;;;;;;5.38;2.50;;;;;;;17.94;63.01;100300.66;5973707;29;20244;-52
2021/07/31 02:36:02;;;;;;;3.10;2.63;;;;;;;18.00;62.13;100292.47;5967823;29;20236;-51
2021/07/31 02:39:31;;;;;;;2.60;2.40;;;;;;;17.71;63.46;100299.09;5967082;29;20248;-51
2021/07/31 02:42:52;;;;;;;2.97;2.67;;;;;;;18.09;62.08;100283.28;5984808;29;20240;-54
2021/07/31 02:46:14;;;;;;;2.83;2.55;;;;;;;18.24;61.61;100279.91;5972609;29;20239;-51
2021/07/31 02:49:37;;;;;;;2.88;2.40;;;;;;;18.20;61.49;100285.38;5968963;29;20243;-53
2021/07/31 02:52:58;;;;;;;2.30;2.10;;;;;;;18.27;61.22;100292.06;5972256;29;20243;-51
2021/07/31 02:56:20;;;;;;;2.50;2.40;;;;;;;17.87;62.45;100299.25;5965600;29;20240;-52
2021/07/31 02:59:59;;;;;;;3.50;3.00;;;;;;;18.07;62.18;100277.22;5966476;29;20240;-47
2021/07/31 03:03:24;;;;;;;6.47;2.60;;;;;;;17.83;62.72;100277.44;5980934;29;20781;-53
2021/07/31 03:06:46;;;;;;;4.00;3.08;;;;;;;17.77;63.05;100271.63;5980854;29;20240;-54
2021/07/31 03:10:12;;;;;;;4.00;2.20;;;;;;;17.92;62.83;100275.34;5973444;29;20240;-53
2021/07/31 03:13:35;;;;;;;2.95;2.42;;;;;;;17.30;64.24;100270.28;5975249;29;20244;-53
2021/07/31 03:16:56;;;;;;;2.33;2.07;;;;;;;17.99;61.89;100256.53;5966890;29;20326;-46
2021/07/31 03:20:17;;;;;;;3.92;2.58;;;;;;;18.07;61.95;100258.78;5971365;29;20276;-54
2021/07/31 03:23:46;;;;;;;4.47;2.97;;;;;;;18.06;62.09;100251.78;5967130;29;20244;-52
2021/07/31 03:27:08;;;;;;;6.68;2.58;;;;;;;17.71;64.16;100267.50;5972114;29;20243;-49
2021/07/31 03:30:49;;;;;;;2.90;2.70;;;;;;;17.85;64.08;100259.81;5967630;29;20267;-51
2021/07/31 03:34:13;;;;;;;4.35;2.63;;;;;;;17.50;65.70;100249.13;5972269;29;20248;-49
2021/07/31 03:37:34;;;;;;;5.07;3.17;;;;;;;17.44;66.15;100251.22;5967325;29;20319;-53
2021/07/31 03:40:56;;;;;;;5.55;3.05;;;;;;;17.88;64.74;100243.88;5967528;29;20334;-50
2021/07/31 03:44:24;;;;;;;3.47;2.58;;;;;;;17.76;65.05;100244.44;5966363;29;20231;-51
2021/07/31 03:47:46;;;;;;;5.07;3.72;;;;;;;18.05;64.11;100242.22;5973546;29;20311;-49
2021/07/31 03:51:07;;;;;;;4.50;3.25;;;;;;;17.52;65.38;100246.44;5969236;29;20243;-54
2021/07/31 03:54:32;;;;;;;2.72;2.53;;;;;;;17.93;64.21;100241.00;5969351;29;20252;-50
2021/07/31 03:57:55;;;;;;;3.05;2.65;;;;;;;18.08;63.84;100240.25;5973521;29;20532;-51
2021/07/31 04:01:22;;;;;;;4.00;2.13;;;;;;;18.12;62.84;100233.03;5968806;29;20243;-49
2021/07/31 04:04:44;;;;;;;2.42;1.98;;;;;;;17.89;63.15;100235.06;5967725;29;20319;-51
2021/07/31 04:08:05;;;;;;;4.80;2.38;;;;;;;17.45;64.29;100235.34;5957057;29;20228;-48
2021/07/31 04:11:44;;;;;;;2.60;2.20;;;;;;;17.67;63.88;100239.59;5970910;29;20263;-50
2021/07/31 04:15:25;;;;;;;2.47;2.28;;;;;;;17.63;63.88;100243.31;5968203;29;20239;-51
2021/07/31 04:18:47;;;;;;;2.95;2.45;;;;;;;17.49;64.27;100241.34;5970615;29;20236;-50
2021/07/31 04:22:09;;;;;;;3.03;2.78;;;;;;;17.59;64.11;100241.75;5970489;29;20285;-55
2021/07/31 04:25:35;;;;;;;5.00;2.15;;;;;;;18.03;62.85;100230.84;5973781;29;20260;-47
2021/07/31 04:28:56;;;;;;;4.07;2.25;;;;;;;17.78;63.53;100229.41;5965672;29;20718;-52
2021/07/31 04:32:18;;;;;;;4.47;2.55;;;;;;;17.48;65.18;100226.44;5966316;29;20259;-52
2021/07/31 04:35:39;;;;;;;4.15;2.60;;;;;;;17.67;64.40;100227.28;5973377;29;20239;-53
2021/07/31 04:39:00;;;;;;;5.18;2.92;;;;;;;17.50;64.60;100230.72;5961488;29;20240;-50
2021/07/31 04:42:21;;;;;;;3.28;2.47;;;;;;;17.24;65.87;100231.94;5973898;29;20232;-53
2021/07/31 04:45:42;;;;;;;4.70;3.22;;;;;;;17.65;64.42;100221.25;5973629;29;20680;-52
2021/07/31 04:49:04;;;;;;;5.82;2.50;;;;;;;17.65;64.14;100223.03;5965394;29;20606;-53
2021/07/31 04:52:25;;;;;;;6.40;3.00;;;;;;;18.01;62.92;100225.69;5968807;29;20236;-54
2021/07/31 04:55:46;;;;;;;3.20;2.90;;;;;;;17.76;63.29;100212.84;5957708;29;20630;-50
2021/07/31 04:59:07;;;;;;;5.30;2.67;;;;;;;17.42;64.42;100219.69;5969300;29;20268;-49
2021/07/31 05:02:32;;;;;;;2.77;2.37;;;;;;;17.23;65.14;100219.69;5968845;29;20251;-52
2021/07/31 05:05:55;;;;;;;4.97;3.37;;;;;;;17.71;63.86;100218.31;5970684;29;20619;-49
2021/07/31 05:09:15;;;;;;;2.17;1.97;;;;;;;17.74;63.79;100214.69;5976775;29;20614;-52
2021/07/31 05:12:36;;;;;;;4.47;2.40;;;;;;;17.37;64.75;100211.19;5972203;29;20328;-50
2021/07/31 05:15:57;;;;;;;8.37;3.10;;;;;;;17.74;63.50;100206.78;5966983;29;20244;-47
2021/07/31 05:19:18;;;;;;;4.30;2.67;;;;;;;17.81;63.05;100218.72;5976724;29;20244;-50
2021/07/31 05:22:41;;;;;;;5.22;2.53;;;;;;;17.57;64.09;100214.66;5968874;29;20313;-52
2021/07/31 05:26:02;;;;;;;6.77;2.47;;;;;;;17.92;62.57;100215.59;5973191;29;20244;-50
2021/07/31 05:29:22;;;;;;;4.67;2.60;;;;;;;17.27;64.35;100209.88;5975592;29;20244;-48
2021/07/31 05:32:43;;;;;;;6.37;2.50;;;;;;;17.66;63.39;100222.09;5975035;29;20244;-51
2021/07/31 05:36:09;;;;;;;4.07;2.10;;;;;;;18.11;61.66;100212.91;5974174;29;20231;-50
2021/07/31 05:39:33;;;;;;;3.88;2.72;;;;;;;18.14;60.48;100217.16;5970932;29;20237;-51
2021/07/31 05:42:54;;;;;;;6.18;2.38;;;;;;;17.85;61.96;100215.03;5975226;29;20255;-49
2021/07/31 05:46:18;;;;;;;5.65;2.17;;;;;;;17.63;62.10;100212.56;5966269;29;20658;-50
2021/07/31 05:49:39;;;;;;;6.65;2.95;;;;;;;17.33;62.72;100212.22;5969924;29;20267;-50
2021/07/31 05:53:00;;;;;;;4.97;2.63;;;;;;;17.29;62.46;100213.28;5971483;29;20552;-50
2021/07/31 05:56:22;;;;;;;4.22;2.30;;;;;;;17.74;61.54;100198.88;5963894;29;20236;-50
2021/07/31 05:59:43;;;;;;;2.67;1.97;;;;;;;16.91;63.62;100224.66;5967919;29;20233;-53
2021/07/31 06:03:04;;;;;;;4.33;2.80;;;;;;;17.58;62.15;100206.66;5966190;29;20224;-50
2021/07/31 06:06:25;;;;;;;3.17;2.87;;;;;;;17.43;62.18;100215.31;5971192;29;20629;-49
2021/07/31 06:09:50;;;;;;;3.47;2.10;;;;;;;17.39;62.52;100214.59;5969091;29;20311;-51
2021/07/31 06:13:12;;;;;;;6.73;2.90;;;;;;;17.54;61.87;100212.16;5983796;29;20330;-50
2021/07/31 06:16:33;;;;;;;4.00;2.47;;;;;;;17.96;60.30;100208.41;5969864;29;20255;-47
2021/07/31 06:19:54;;;;;;;4.43;2.50;;;;;;;17.88;60.46;100208.78;5971708;29;20240;-52
2021/07/31 06:23:15;;;;;;;3.13;2.13;;;;;;;17.46;61.72;100218.63;5971169;29;20240;-54
2021/07/31 06:26:36;;;;;;;6.87;2.70;;;;;;;17.21;62.06;100208.38;5971557;29;20655;-51
2021/07/31 06:29:58;;;;;;;5.07;2.30;;;;;;;17.39;61.15;100211.97;5980335;29;20232;-47
2021/07/31 06:33:20;;;;;;;3.08;2.33;;;;;;;18.05;59.99;100200.91;5973619;29;20256;-52
2021/07/31 06:36:42;;;;;;;3.58;2.33;;;;;;;17.50;60.90;100204.38;5974553;29;20295;-51
2021/07/31 06:40:03;;;;;;;6.87;2.70;;;;;;;18.13;59.51;100191.75;5966317;29;20236;-51
2021/07/31 06:43:25;;;;;;;3.67;2.27;;;;;;;18.06;59.05;100193.84;5975165;29;20236;-50
2021/07/31 06:46:47;;;;;;;5.07;3.17;;;;;;;17.76;59.99;100189.13;5971530;29;20654;-53
2021/07/31 06:50:10;;;;;;;3.20;2.10;;;;;;;17.89;59.39;100198.19;5972728;29;20671;-45
2021/07/31 06:53:32;;;;;;;5.47;2.63;;;;;;;17.66;60.25;100201.00;5980757;29;20505;-48
2021/07/31 06:56:52;;;;;;;4.93;2.50;;;;;;;17.69;59.73;100195.63;5971266;29;20297;-48
2021/07/31 07:00:14;;;;;;;4.38;2.33;;;;;;;17.90;59.36;100185.84;5957070;29;20266;-51
2021/07/31 07:03:36;;;;;;;5.80;2.20;;;;;;;18.30;58.44;100192.59;5959035;29;20228;-52
2021/07/31 07:06:59;;;;;;;3.55;1.83;;;;;;;18.46;57.74;100182.13;5961444;29;20243;-52
2021/07/31 07:10:20;;;;;;;6.57;3.00;;;;;;;18.03;59.24;100197.50;5973287;29;20611;-52
2021/07/31 07:13:41;;;;;;;4.00;2.37;;;;;;;17.67;59.41;100186.94;5975395;29;20252;-50
2021/07/31 07:17:04;;;;;;;4.00;2.35;;;;;;;18.26;57.73;100177.88;5973048;29;20247;-50
2021/07/31 07:20:26;;;;;;;4.13;2.50;;;;;;;19.00;55.82;100176.66;5969686;29;20697;-48
2021/07/31 07:23:48;;;;;;;4.70;2.58;;;;;;;18.15;57.75;100177.56;5970212;29;20244;-46
2021/07/31 07:27:08;;;;;;;4.55;3.13;;;;;;;18.46;57.32;100176.00;5962412;29;20247;-54
2021/07/31 07:30:29;;;;;;;3.33;2.83;;;;;;;18.64;56.75;100172.38;5974680;29;20236;-49
2021/07/31 07:33:50;;;;;;;6.88;3.03;;;;;;;18.27;57.84;100176.09;5977988;29;20259;-50
2021/07/31 07:37:13;;;;;;;5.53;2.38;;;;;;;17.92;58.80;100172.59;5983446;29;20267;-51
2021/07/31 07:40:34;;;;;;;4.10;2.40;;;;;;;18.29;57.76;100159.25;5977927;29;20327;-51
2021/07/31 07:43:55;;;;;;;4.35;2.53;;;;;;;18.14;58.22;100178.50;5974620;29;20240;-50
2021/07/31 07:47:17;;;;;;;4.32;2.30;;;;;;;18.18;58.01;100180.03;5964219;29;20786;-52
2021/07/31 07:50:38;;;;;;;3.30;2.30;;;;;;;18.19;57.87;100179.13;5971790;29;20528;-50
2021/07/31 07:54:00;;;;;;;3.00;1.97;;;;;;;18.49;57.11;100181.09;5976372;29;20239;-51
2021/07/31 07:57:21;;;;;;;5.15;2.63;;;;;;;18.20;58.04;100174.69;5970348;29;20240;-48
2021/07/31 08:00:43;;;;;;;6.27;3.40;;;;;;;18.24;58.04;100184.13;5967801;29;20259;-51
2021/07/31 08:04:05;;;;;;;2.40;2.20;;;;;;;18.39;57.75;100169.34;5974500;29;20235;-52
2021/07/31 08:07:26;;;;;;;3.78;2.95;;;;;;;18.39;57.92;100175.44;5966874;29;20251;-52
2021/07/31 08:10:51;;;;;;;4.65;2.30;;;;;;;18.76;56.95;100178.78;5963416;29;20268;-54
2021/07/31 08:14:12;;;;;;;4.20;2.03;;;;;;;18.03;58.83;100184.31;5964047;29;20248;-54
2021/07/31 08:17:33;;;;;;;4.75;2.63;;;;;;;18.42;58.41;100187.63;5966476;29;20269;-52
2021/07/31 08:20:53;;;;;;;6.20;2.20;;;;;;;18.76;57.36;100175.31;5963415;29;20630;-54
2021/07/31 08:24:16;;;;;;;4.15;2.70;;;;;;;18.28;59.17;100181.28;5970588;29;20741;-47
2021/07/31 08:27:38;;;;;;;2.47;2.15;;;;;;;18.48;58.84;100189.94;5968110;29;20235;-52
2021/07/31 08:30:59;;;;;;;3.10;2.22;;;;;;;18.86;58.25;100184.47;5972719;29;20343;-52
2021/07/31 08:34:20;;;;;;;6.88;3.08;;;;;;;19.02;57.59;100174.81;5967028;29;20295;-52
2021/07/31 08:37:41;;;;;;;2.38;2.00;;;;;;;18.56;58.57;100182.50;5969210;29;20324;-50
2021/07/31 08:41:03;;;;;;;8.13;2.42;;;;;;;18.49;58.84;100183.72;5971789;29;20235;-52
2021/07/31 08:44:26;;;;;;;3.95;3.17;;;;;;;18.21;59.52;100202.75;5976577;29;20244;-53
2021/07/31 08:47:50;;;;;;;2.90;2.20;;;;;;;18.65;58.50;100186.41;5972576;29;20244;-49
2021/07/31 08:51:14;;;;;;;4.75;2.55;;;;;;;18.51;58.57;100189.78;5973708;29;20334;-48
2021/07/31 08:54:39;;;;;;;5.38;2.30;;;;;;;18.28;59.04;100210.28;5965978;29;20645;-53
2021/07/31 08:58:00;;;;;;;3.70;2.80;;;;;;;18.17;59.58;100175.72;5972742;29;20420;-54
2021/07/31 09:01:24;;;;;;;5.03;2.42;;;;;;;18.75;58.03;100185.00;5972058;29;20248;-52
2021/07/31 09:04:45;;;;;;;5.82;2.80;;;;;;;18.77;57.72;100179.66;5973537;29;20627;-52
2021/07/31 09:08:07;;;;;;;8.00;3.25;;;;;;;18.39;58.72;100179.88;5976722;29;20240;-48
2021/07/31 09:11:29;;;;;;;3.42;2.20;;;;;;;18.98;56.95;100210.19;5971852;29;20888;-49
2021/07/31 09:14:50;;;;;;;4.63;2.80;;;;;;;18.62;58.02;100187.44;5971799;29;20251;-49
2021/07/31 09:18:30;;;;;;;4.72;2.13;;;;;;;19.03;56.55;100196.75;5966409;29;20319;-53
2021/07/31 09:21:52;;;;;;;3.53;2.83;;;;;;;19.55;55.27;100182.47;5973322;29;20326;-52
2021/07/31 09:25:16;;;;;;;3.85;2.50;;;;;;;19.81;54.59;100173.06;5964262;29;20228;-53
2021/07/31 09:28:40;;;;;;;2.90;2.53;;;;;;;19.73;54.85;100160.31;5969528;29;20539;-51
2021/07/31 09:32:02;;;;;;;7.28;2.80;;;;;;;19.96;53.88;100171.34;5970817;29;20244;-51
2021/07/31 09:35:25;;;;;;;6.10;2.75;;;;;;;19.42;55.30;100172.56;5975551;29;20986;-46
2021/07/31 09:38:47;;;;;;;4.97;2.88;;;;;;;19.32;55.45;100170.56;5973469;29;20646;-49
2021/07/31 09:42:25;;;;;;;3.42;2.38;;;;;;;19.59;54.47;100166.34;5969978;29;20240;-49
2021/07/31 09:45:48;;;;;;;5.15;2.53;;;;;;;20.29;52.75;100162.34;5973491;29;20263;-51
2021/07/31 09:49:10;;;;;;;3.58;2.45;;;;;;;20.18;53.11;100161.22;5966110;29;20244;-50
2021/07/31 09:52:33;;;;;;;4.00;2.53;;;;;;;19.93;53.11;100160.94;5962556;29;20228;-51
2021/07/31 09:55:56;;;;;;;3.85;2.33;;;;;;;19.97;53.08;100136.06;5972234;29;20247;-52
2021/07/31 09:59:19;;;;;;;3.10;2.40;;;;;;;19.61;53.54;100158.34;5972601;29;20701;-53
2021/07/31 10:02:41;;;;;;;3.33;2.38;;;;;;;19.30;54.57;100141.59;5970657;29;20232;-47
2021/07/31 10:06:01;;;;;;;4.63;2.15;;;;;;;19.39;54.99;100150.81;5973987;29;20230;-54
2021/07/31 10:09:24;;;;;;;2.20;1.70;;;;;;;19.37;54.81;100142.13;5963728;29;20232;-51
2021/07/31 10:12:45;;;;;;;2.90;2.45;;;;;;;19.39;54.99;100134.97;5968469;29;20232;-52
2021/07/31 10:16:06;;;;;;;4.80;2.25;;;;;;;19.50;54.35;100152.81;5965937;29;20244;-50
2021/07/31 10:19:37;;;;;;;4.25;2.10;;;;;;;19.51;55.30;100144.81;5970163;29;20320;-52
2021/07/31 10:22:58;;;;;;;3.13;2.38;;;;;;;19.21;55.44;100148.25;5967358;29;20239;-50
2021/07/31 10:26:21;;;;;;;6.10;2.78;;;;;;;20.15;52.82;100134.13;5968592;29;20243;-53
2021/07/31 10:29:43;;;;;;;2.45;2.03;;;;;;;19.81;53.68;100138.72;5968233;29;20232;-48
2021/07/31 10:33:05;;;;;;;4.85;2.20;;;;;;;19.53;54.56;100123.59;5972831;29;20239;-46
2021/07/31 10:36:32;;;;;;;2.70;2.20;;;;;;;19.43;55.18;100132.06;5978869;29;20267;-52
2021/07/31 10:39:53;;;;;;;4.63;2.47;;;;;;;19.32;55.31;100139.72;5973848;29;20263;-52
2021/07/31 10:43:16;;;;;;;5.32;2.58;;;;;;;18.94;55.91;100133.91;5978794;29;20231;-52
2021/07/31 10:46:39;;;;;;;4.15;1.73;;;;;;;19.27;54.72;100128.59;5970735;29;20754;-48
2021/07/31 10:49:59;;;;;;;5.93;2.33;;;;;;;19.05;56.86;100148.22;5968148;29;20567;-53
2021/07/31 10:53:21;;;;;;;1.80;1.67;;;;;;;18.88;58.45;100145.66;5973611;29;20248;-50
2021/07/31 10:56:55;;;;;;;4.07;2.58;;;;;;;18.91;58.10;100147.28;5968981;29;20334;-51
2021/07/31 11:00:25;;;;;;;3.08;2.00;;;;;;;19.11;58.30;100133.00;5965434;29;20236;-50
2021/07/31 11:03:46;;;;;;;4.30;2.35;;;;;;;19.34;57.11;100143.13;5975311;29;20236;-50
2021/07/31 11:07:11;;;;;;;2.60;2.20;;;;;;;19.25;58.37;100133.06;5965099;29;20263;-51
2021/07/31 11:10:45;;;;;;;2.92;1.92;;;;;;;19.16;58.37;100121.25;5969050;29;20319;-50
2021/07/31 11:14:07;;;;;;;2.20;2.00;;;;;;;19.01;57.30;100127.38;5969639;29;20228;-49
2021/07/31 11:17:29;;;;;;;3.28;2.10;;;;;;;19.35;56.08;100118.44;5971126;29;20326;-53
2021/07/31 11:20:50;;;;;;;3.88;1.95;;;;;;;19.56;55.30;100121.66;5967843;29;20268;-51
2021/07/31 11:24:13;;;;;;;1.98;1.88;;;;;;;19.41;55.83;100133.94;5971592;29;20240;-50
2021/07/31 11:27:34;;;;;;;3.45;1.90;;;;;;;19.32;56.08;100133.59;5970352;29;20267;-49
2021/07/31 11:30:54;;;;;;;2.13;1.88;;;;;;;19.43;55.98;100113.56;5966910;29;20240;-50
2021/07/31 11:34:17;;;;;;;2.22;1.40;;;;;;;19.52;55.30;100132.47;5963431;29;20243;-53
2021/07/31 11:37:38;;;;;;;1.95;1.52;;;;;;;20.46;53.00;100126.00;5970330;29;20237;-50
2021/07/31 11:41:00;;;;;;;4.13;2.08;;;;;;;19.47;55.61;100120.38;5970466;29;20528;-52
2021/07/31 11:44:26;;;;;;;4.03;1.35;;;;;;;20.19;53.62;100104.75;5970779;29;20236;-52
2021/07/31 11:47:54;;;;;;;2.25;1.55;;;;;;;19.75;54.85;100116.16;5969566;29;20527;-51
2021/07/31 11:51:16;;;;;;;1.80;1.70;;;;;;;19.33;55.98;100115.03;5964483;29;20240;-49
2021/07/31 11:54:40;;;;;;;14.15;2.97;;;;;;;19.79;55.13;100101.84;5971173;29;20647;-51
2021/07/31 11:58:01;;;;;;;6.28;1.52;;;;;;;19.94;54.63;100120.38;5968987;29;20508;-52
2021/07/31 12:01:22;;;;;;;7.57;2.35;;;;;;;20.03;54.31;100114.56;5970920;29;20268;-49
2021/07/31 12:04:47;;;;;;;2.60;1.77;;;;;;;19.64;55.31;100137.91;5962764;29;20608;-54
2021/07/31 12:08:10;;;;;;;3.13;1.27;;;;;;;19.50;55.41;100143.09;5969794;29;20240;-52
2021/07/31 12:11:33;;;;;;;2.25;2.08;;;;;;;19.87;55.02;100135.72;5971406;29;20243;-49
2021/07/31 12:15:10;;;;;;;3.40;1.80;;;;;;;20.19;54.46;100149.69;5965921;29;20236;-50
2021/07/31 12:18:50;;;;;;;3.15;1.80;;;;;;;20.08;55.07;100149.47;5970596;29;20243;-53
2021/07/31 12:22:12;;;;;;;5.00;2.13;;;;;;;19.55;56.77;100156.91;5971525;29;20265;-50
2021/07/31 12:25:35;;;;;;;8.82;2.45;;;;;;;19.11;56.84;100156.75;5964072;29;20240;-50
2021/07/31 12:28:57;;;;;;;3.67;1.48;;;;;;;19.37;57.11;100190.47;5964674;29;20255;-48
2021/07/31 12:32:28;;;;;;;2.88;1.63;;;;;;;19.46;57.73;100168.84;5972456;29;21480;-48
2021/07/31 12:35:58;;;;;;;8.70;1.70;;;;;;;19.29;58.52;100171.59;5965452;29;20247;-47
2021/07/31 12:39:19;;;;;;;7.43;2.75;;;;;;;19.64;57.63;100168.75;5970741;29;20239;-48
2021/07/31 12:42:41;;;;;;;2.45;1.90;;;;;;;19.60;58.20;100167.19;5967943;29;20240;-49
2021/07/31 12:46:04;;;;;;;3.78;2.30;;;;;;;19.51;59.04;100167.75;5966253;29;20264;-51
2021/07/31 12:49:25;;;;;;;2.58;1.33;;;;;;;19.25;60.08;100192.00;5970068;29;20235;-49
2021/07/31 12:52:46;;;;;;;2.70;1.90;;;;;;;19.31;59.55;100185.53;5972640;29;20232;-51
2021/07/31 12:56:07;;;;;;;4.07;1.83;;;;;;;19.22;59.64;100194.81;5971281;29;20243;-47
2021/07/31 12:59:30;;;;;;;4.20;2.50;;;;;;;19.20;59.21;100186.13;5974054;29;20240;-53
2021/07/31 13:02:51;;;;;;;2.10;1.70;;;;;;;19.79;57.92;100211.94;5977370;29;20651;-49
2021/07/31 13:06:12;;;;;;;3.28;2.50;;;;;;;19.86;57.68;100222.06;5970246;29;20252;-48
2021/07/31 13:09:33;;;;;;;3.58;2.63;;;;;;;20.39;55.51;100211.09;5968944;29;20263;-49
2021/07/31 13:12:55;;;;;;;4.20;1.67;;;;;;;20.50;55.17;100207.81;5970611;29;20240;-53
2021/07/31 13:16:17;;;;;;;6.28;1.48;;;;;;;19.99;56.67;100202.88;5968200;29;20240;-54
2021/07/31 13:19:38;;;;;;;6.40;2.78;;;;;;;20.24;55.71;100197.84;5954777;29;20323;-55
2021/07/31 13:23:00;;;;;;;3.63;2.15;;;;;;;20.20;56.10;100217.50;5980237;29;20685;-50
2021/07/31 13:26:21;;;;;;;2.80;1.70;;;;;;;19.99;57.15;100213.47;5977527;29;20259;-52
2021/07/31 13:29:42;;;;;;;4.07;1.60;;;;;;;20.51;55.88;100217.44;5969042;29;20240;-54
2021/07/31 13:33:05;;;;;;;2.72;1.70;;;;;;;20.15;56.60;100227.47;5976953;29;20232;-51
2021/07/31 13:36:26;;;;;;;3.30;1.80;;;;;;;19.89;59.24;100241.31;5974209;29;20268;-53
2021/07/31 13:39:49;;;;;;;6.18;1.85;;;;;;;19.10;62.48;100266.75;5980940;29;20239;-50
2021/07/31 13:43:15;;;;;;;3.95;1.48;;;;;;;19.26;61.53;100266.78;5972987;29;20655;-51
2021/07/31 13:46:35;;;;;;;4.68;1.83;;;;;;;19.41;59.52;100252.75;5960833;29;20235;-50
2021/07/31 13:49:58;;;;;;;2.40;1.55;;;;;;;20.17;57.63;100274.97;5968543;29;20228;-54
2021/07/31 13:53:19;;;;;;;2.42;1.88;;;;;;;19.35;64.26;100275.97;5979270;29;20235;-52
2021/07/31 13:56:40;;;;;;;4.07;1.58;;;;;;;19.29;65.60;100271.91;5978829;29;20240;-53
2021/07/31 14:00:02;;;;;;;5.38;2.75;;;;;;;19.73;64.00;100275.69;5975069;29;20646;-49
2021/07/31 14:03:23;;;;;;;3.75;2.13;;;;;;;19.68;64.34;100273.28;5970440;29;20231;-54
2021/07/31 14:06:45;;;;;;;3.67;2.60;;;;;;;19.42;64.25;100283.47;5980078;29;20323;-53
2021/07/31 14:10:07;;;;;;;3.40;2.33;;;;;;;19.28;62.27;100286.00;5976599;29;20231;-48
2021/07/31 14:13:28;;;;;;;4.15;3.08;;;;;;;19.83;59.76;100283.03;5976089;29;20233;-54
2021/07/31 14:16:49;;;;;;;3.75;2.80;;;;;;;20.64;57.42;100309.22;5969747;29;20754;-51
2021/07/31 14:20:10;;;;;;;4.95;2.58;;;;;;;21.24;54.98;100284.44;5972286;29;20243;-53
2021/07/31 14:23:33;;;;;;;3.40;2.80;;;;;;;20.42;56.25;100301.69;5962383;29;20838;-47
2021/07/31 14:26:54;;;;;;;5.03;2.40;;;;;;;20.60;56.33;100286.53;5966048;29;20375;-51
2021/07/31 14:30:15;;;;;;;3.47;2.53;;;;;;;20.41;55.16;100285.91;5968720;29;20677;-49
2021/07/31 14:33:36;;;;;;;2.90;2.33;;;;;;;20.89;54.30;100293.69;5970908;29;20232;-50
2021/07/31 14:36:57;;;;;;;4.93;2.03;;;;;;;21.61;51.55;100283.97;5977396;29;20259;-52
2021/07/31 14:40:20;;;;;;;6.47;2.95;;;;;;;20.69;54.32;100286.97;5967499;29;20596;-50
2021/07/31 14:43:41;;;;;;;2.33;2.13;;;;;;;20.42;55.00;100284.97;5969227;29;20260;-53
2021/07/31 14:47:02;;;;;;;3.60;1.92;;;;;;;20.36;55.36;100286.19;5969499;29;20639;-48
2021/07/31 14:50:23;;;;;;;3.72;2.10;;;;;;;20.48;55.89;100300.47;5969958;29;20236;-51
2021/07/31 14:53:44;;;;;;;5.05;2.63;;;;;;;18.67;65.11;100333.09;5972562;29;20231;-48
2021/07/31 14:57:06;;;;;;;5.13;2.40;;;;;;;18.25;70.80;100339.56;5974468;29;20236;-51
2021/07/31 15:00:28;;;;;;;4.07;2.55;;;;;;;18.86;70.08;100329.53;5972520;29;20248;-53
2021/07/31 15:03:49;;;;;;;3.22;2.33;;;;;;;19.00;68.67;100334.97;5972030;29;20236;-52
2021/07/31 15:07:10;;;;;;;5.00;3.58;;;;;;;19.25;68.31;100342.47;5970796;29;20240;-54
2021/07/31 15:10:30;;;;;;;4.78;2.90;;;;;;;20.06;63.99;100345.16;5967951;29;20323;-52
2021/07/31 15:13:53;;;;;;;3.97;3.05;;;;;;;20.72;62.81;100344.97;5968067;29;20235;-50
2021/07/31 15:17:19;;;;;;;4.20;2.83;;;;;;;20.69;62.34;100346.00;5959499;29;20243;-51
2021/07/31 15:20:40;;;;;;;4.25;2.40;;;;;;;20.58;62.15;100349.25;5972095;29;20244;-53
2021/07/31 15:24:01;;;;;;;3.90;2.65;;;;;;;20.67;61.57;100361.13;5972816;29;20840;-48
2021/07/31 15:27:21;;;;;;;5.25;3.92;;;;;;;20.15;62.63;100364.09;5975431;29;20239;-53
2021/07/31 15:30:44;;;;;;;4.82;3.40;;;;;;;20.36;62.05;100362.03;5974926;29;20236;-49
2021/07/31 15:34:05;;;;;;;3.75;2.92;;;;;;;20.07;61.71;100353.94;5967229;29;20237;-49
2021/07/31 15:37:25;;;;;;;2.83;2.47;;;;;;;19.84;61.60;100342.84;5966172;29;20237;-53
2021/07/31 15:40:47;;;;;;;3.53;2.22;;;;;;;20.06;60.95;100381.28;5966817;29;20623;-52
2021/07/31 15:44:08;;;;;;;3.78;2.17;;;;;;;19.72;62.27;100354.09;5962288;29;20637;-48